Search for airport 
image banner adimage banner ad
image banner ad

FQPB - Pemba / National

Located in Pemba, Mozambique

ICAO - FQPB, IATA - POL

Data provided by Airmate  

General information

Coordinates: S12°59'30" E40°31'27"
Elevation is 331 feet MSL.
 
View others Airports in Cabo Delgado Province

Operational data

Open for public use
Current time UTC:
Current local time:
Weather
METAR: FQPB 290200Z 34005KT 9999 SCT019 23/21 Q1014
TAF: TAF FQPB 282200Z 2900/2924 04013KT 9999 FEW020 TX30/2913Z TN23/2903Z BECMG 2901/2903 VRB02KT BECMG 2906/2908 34010KT BECMG 2912/2914 09010KT
View NOTAMs / SUP AIP / TFR affecting this airport [VIEW]
Communications frequencies: [VIEW]

Runways:

RWY identifierQFULength (ft)Width (ft)SurfaceLDA (ft)
0878°262598ASP
2600
175906148
355906148

Airport contact information

Address: Pemba Mozambique

Satellite view of FQPB